SUR4070 SARI-SLLP
Flight info
| Callsign | SUR4070 |
|---|---|
| Flight time | N/A |
| Altitude | 32000 |
| Route | COST3H COSTA ILPUR UM657 VAPAS VAPA1A |
| Aircraft | E190/M-S/1200 |
Departure
| Time | 2026-04-24 21:18 |
|---|---|
| Airport | Cataratas Del Iguazú International Airport (SARI) |
Arrival
| Time | N/A |
|---|---|
| Airport | El Alto International Airport (SLLP) |
| Time | Latitude | Longitude | Altitude | Speed | Heading |
|---|---|---|---|---|---|
| 2026-04-24 21:11 | -25.73254 | -54.47615 | 884 ft | 0 kts | 27° |
| 2026-04-24 21:12 | -25.73253 | -54.47612 | 884 ft | 0 kts | 71° |
| 2026-04-24 21:13 | -25.73258 | -54.47607 | 884 ft | 1 kts | 159° |
| 2026-04-24 21:13 | -25.73285 | -54.47598 | 884 ft | 7 kts | 163° |
| 2026-04-24 21:13 | -25.73338 | -54.47570 | 884 ft | 8 kts | 149° |
| 2026-04-24 21:13 | -25.73393 | -54.47529 | 883 ft | 10 kts | 146° |
| 2026-04-24 21:14 | -25.73454 | -54.47485 | 883 ft | 10 kts | 146° |
| 2026-04-24 21:14 | -25.73515 | -54.47439 | 883 ft | 10 kts | 146° |
| 2026-04-24 21:14 | -25.73575 | -54.47394 | 883 ft | 9 kts | 146° |
| 2026-04-24 21:14 | -25.73630 | -54.47353 | 885 ft | 8 kts | 146° |
| 2026-04-24 21:15 | -25.73695 | -54.47304 | 887 ft | 14 kts | 144° |
| 2026-04-24 21:15 | -25.73772 | -54.47207 | 888 ft | 21 kts | 117° |
| 2026-04-24 21:15 | -25.73850 | -54.47031 | 889 ft | 30 kts | 116° |
| 2026-04-24 21:15 | -25.73951 | -54.46787 | 891 ft | 38 kts | 115° |
| 2026-04-24 21:16 | -25.74071 | -54.46498 | 902 ft | 44 kts | 114° |
| 2026-04-24 21:16 | -25.74197 | -54.46190 | 912 ft | 40 kts | 113° |
| 2026-04-24 21:16 | -25.74280 | -54.45989 | 916 ft | 21 kts | 123° |
| 2026-04-24 21:16 | -25.74315 | -54.45877 | 912 ft | 7 kts | 130° |
| 2026-04-24 21:17 | -25.74326 | -54.45892 | 912 ft | 1 kts | 283° |
| 2026-04-24 21:17 | -25.74218 | -54.46180 | 912 ft | 86 kts | 295° |
| 2026-04-24 21:17 | -25.73846 | -54.47083 | 891 ft | 164 kts | 292° |
| 2026-04-24 21:17 | -25.73318 | -54.48344 | 1396 ft | 195 kts | 292° |
| 2026-04-24 21:18 | -25.72702 | -54.49807 | 1988 ft | 231 kts | 292° |
| 2026-04-24 21:18 | -25.72007 | -54.51461 | 2469 ft | 243 kts | 292° |
| 2026-04-24 21:18 | -25.71276 | -54.53202 | 2979 ft | 253 kts | 291° |
| 2026-04-24 21:18 | -25.70535 | -54.54969 | 3474 ft | 255 kts | 291° |
| 2026-04-24 21:19 | -25.69789 | -54.56751 | 3967 ft | 255 kts | 291° |
| 2026-04-24 21:19 | -25.69043 | -54.58531 | 4458 ft | 256 kts | 291° |
| 2026-04-24 21:19 | -25.68296 | -54.60313 | 4951 ft | 256 kts | 292° |
| 2026-04-24 21:19 | -25.67546 | -54.62101 | 5446 ft | 256 kts | 292° |
| 2026-04-24 21:20 | -25.66042 | -54.65687 | 6440 ft | 257 kts | 292° |
| 2026-04-24 21:20 | -25.65299 | -54.67458 | 6932 ft | 256 kts | 293° |
| 2026-04-24 21:20 | -25.64600 | -54.69272 | 7428 ft | 252 kts | 285° |
| 2026-04-24 21:21 | -25.64140 | -54.71121 | 7929 ft | 251 kts | 284° |
| 2026-04-24 21:21 | -25.63681 | -54.73001 | 8427 ft | 251 kts | 284° |
| 2026-04-24 21:21 | -25.63234 | -54.74827 | 8910 ft | 249 kts | 284° |
| 2026-04-24 21:21 | -25.62780 | -54.76681 | 9400 ft | 248 kts | 285° |
| 2026-04-24 21:22 | -25.62332 | -54.78511 | 9883 ft | 247 kts | 285° |
| 2026-04-24 21:22 | -25.61881 | -54.80347 | 10364 ft | 249 kts | 285° |
| 2026-04-24 21:22 | -25.61426 | -54.82204 | 10845 ft | 251 kts | 285° |
| 2026-04-24 21:22 | -25.60956 | -54.84116 | 11346 ft | 270 kts | 285° |
| 2026-04-24 21:23 | -25.60446 | -54.86193 | 11858 ft | 293 kts | 285° |
| 2026-04-24 21:23 | -25.59885 | -54.88478 | 12367 ft | 315 kts | 285° |
| 2026-04-24 21:23 | -25.59297 | -54.90865 | 12841 ft | 326 kts | 285° |
| 2026-04-24 21:23 | -25.58695 | -54.93312 | 13299 ft | 332 kts | 285° |
| 2026-04-24 21:24 | -25.58096 | -54.95742 | 13744 ft | 333 kts | 285° |
| 2026-04-24 21:24 | -25.57485 | -54.98223 | 14213 ft | 334 kts | 285° |
| 2026-04-24 21:24 | -25.56870 | -55.00713 | 14682 ft | 335 kts | 285° |
| 2026-04-24 21:24 | -25.56256 | -55.03198 | 15148 ft | 336 kts | 285° |
| 2026-04-24 21:25 | -25.55641 | -55.05690 | 15609 ft | 337 kts | 285° |
| 2026-04-24 21:25 | -25.55024 | -55.08184 | 16071 ft | 338 kts | 285° |
| 2026-04-24 21:25 | -25.54403 | -55.10690 | 16533 ft | 338 kts | 285° |
| 2026-04-24 21:25 | -25.53786 | -55.13183 | 16991 ft | 339 kts | 285° |
| 2026-04-24 21:26 | -25.53156 | -55.15723 | 17452 ft | 340 kts | 285° |
| 2026-04-24 21:26 | -25.52534 | -55.18228 | 17905 ft | 342 kts | 285° |
| 2026-04-24 21:26 | -25.51902 | -55.20775 | 18360 ft | 344 kts | 285° |
| 2026-04-24 21:26 | -25.51229 | -55.23312 | 18809 ft | 345 kts | 292° |
| 2026-04-24 21:27 | -25.50068 | -55.25627 | 19280 ft | 348 kts | 300° |
| 2026-04-24 21:27 | -25.48778 | -55.27908 | 19736 ft | 350 kts | 299° |
| 2026-04-24 21:27 | -25.47482 | -55.30202 | 20191 ft | 352 kts | 299° |
| 2026-04-24 21:27 | -25.46174 | -55.32516 | 20642 ft | 356 kts | 299° |
| 2026-04-24 21:28 | -25.44874 | -55.34817 | 21090 ft | 355 kts | 298° |
| 2026-04-24 21:28 | -25.43552 | -55.37154 | 21542 ft | 359 kts | 298° |
| 2026-04-24 21:28 | -25.42229 | -55.39492 | 21988 ft | 361 kts | 298° |
| 2026-04-24 21:28 | -25.40904 | -55.41832 | 22427 ft | 364 kts | 298° |
| 2026-04-24 21:29 | -25.39555 | -55.44215 | 22876 ft | 364 kts | 298° |
| 2026-04-24 21:29 | -25.38225 | -55.46562 | 23322 ft | 367 kts | 298° |
| 2026-04-24 21:29 | -25.36868 | -55.48956 | 23781 ft | 368 kts | 298° |
| 2026-04-24 21:29 | -25.35509 | -55.51351 | 24237 ft | 371 kts | 298° |
| 2026-04-24 21:30 | -25.34135 | -55.53771 | 24721 ft | 372 kts | 298° |
| 2026-04-24 21:30 | -25.32756 | -55.56201 | 25204 ft | 373 kts | 298° |
| 2026-04-24 21:30 | -25.31375 | -55.58632 | 25689 ft | 377 kts | 298° |
| 2026-04-24 21:30 | -25.29979 | -55.61088 | 26179 ft | 378 kts | 298° |
| 2026-04-24 21:31 | -25.28592 | -55.63525 | 26656 ft | 381 kts | 298° |
| 2026-04-24 21:31 | -25.27163 | -55.66037 | 27154 ft | 383 kts | 298° |
| 2026-04-24 21:31 | -25.25752 | -55.68515 | 27658 ft | 387 kts | 299° |
| 2026-04-24 21:31 | -25.24325 | -55.71021 | 28171 ft | 389 kts | 298° |
| 2026-04-24 21:32 | -25.22876 | -55.73563 | 28686 ft | 389 kts | 299° |
| 2026-04-24 21:32 | -25.21444 | -55.76076 | 29196 ft | 392 kts | 299° |
| 2026-04-24 21:32 | -25.19981 | -55.78638 | 29701 ft | 395 kts | 299° |
| 2026-04-24 21:32 | -25.18515 | -55.81207 | 30192 ft | 397 kts | 299° |
| 2026-04-24 21:33 | -25.17041 | -55.83787 | 30686 ft | 399 kts | 299° |
| 2026-04-24 21:33 | -25.16067 | -55.85493 | 31010 ft | 398 kts | 299° |
| 2026-04-24 21:33 | -25.14091 | -55.88948 | 31659 ft | 400 kts | 299° |
| 2026-04-24 21:33 | -25.12605 | -55.91545 | 32141 ft | 400 kts | 299° |
| 2026-04-24 21:34 | -25.11115 | -55.94148 | 32627 ft | 400 kts | 299° |
| 2026-04-24 21:34 | -25.09646 | -55.96713 | 33107 ft | 400 kts | 299° |
| 2026-04-24 21:34 | -25.08156 | -55.99312 | 33607 ft | 399 kts | 299° |
| 2026-04-24 21:34 | -25.06675 | -56.01896 | 34119 ft | 397 kts | 300° |
| 2026-04-24 21:35 | -25.05329 | -56.04241 | 34589 ft | 396 kts | 299° |
| 2026-04-24 21:35 | -25.03873 | -56.06779 | 35102 ft | 394 kts | 300° |
| 2026-04-24 21:35 | -25.02417 | -56.09316 | 35344 ft | 396 kts | 299° |
| 2026-04-24 21:36 | -24.99471 | -56.14440 | 35369 ft | 392 kts | 299° |
| 2026-04-24 21:36 | -24.96555 | -56.19509 | 35373 ft | 393 kts | 299° |
| 2026-04-24 21:37 | -24.93621 | -56.24603 | 35374 ft | 393 kts | 300° |
| 2026-04-24 21:37 | -24.90684 | -56.29697 | 35374 ft | 392 kts | 300° |
| 2026-04-24 21:38 | -24.87772 | -56.34743 | 35378 ft | 392 kts | 299° |
| 2026-04-24 21:38 | -24.84837 | -56.39823 | 35383 ft | 393 kts | 299° |
| 2026-04-24 21:39 | -24.81905 | -56.44891 | 35379 ft | 392 kts | 300° |
| 2026-04-24 21:39 | -24.78959 | -56.49980 | 35377 ft | 394 kts | 300° |
| 2026-04-24 21:40 | -24.76015 | -56.55059 | 35378 ft | 392 kts | 299° |
| 2026-04-24 21:40 | -24.73072 | -56.60131 | 35374 ft | 393 kts | 299° |
| 2026-04-24 21:41 | -24.70126 | -56.65203 | 35381 ft | 393 kts | 300° |
| 2026-04-24 21:41 | -24.67173 | -56.70282 | 35391 ft | 393 kts | 300° |
| 2026-04-24 21:42 | -24.64217 | -56.75361 | 35394 ft | 393 kts | 300° |
| 2026-04-24 21:42 | -24.61252 | -56.80449 | 35392 ft | 394 kts | 300° |
| 2026-04-24 21:43 | -24.58301 | -56.85508 | 35391 ft | 393 kts | 300° |
| 2026-04-24 21:43 | -24.55344 | -56.90572 | 35387 ft | 393 kts | 300° |
| 2026-04-24 21:44 | -24.52377 | -56.95648 | 35392 ft | 395 kts | 300° |
| 2026-04-24 21:44 | -24.49416 | -57.00710 | 35385 ft | 395 kts | 300° |
| 2026-04-24 21:45 | -24.46449 | -57.05776 | 35390 ft | 394 kts | 300° |
| 2026-04-24 21:45 | -24.43486 | -57.10828 | 35384 ft | 395 kts | 300° |
| 2026-04-24 21:46 | -24.40514 | -57.15892 | 35384 ft | 394 kts | 300° |
| 2026-04-24 21:46 | -24.37538 | -57.20957 | 35384 ft | 394 kts | 300° |
| 2026-04-24 21:47 | -24.34558 | -57.26025 | 35379 ft | 395 kts | 300° |
| 2026-04-24 21:47 | -24.31574 | -57.31092 | 35385 ft | 396 kts | 300° |
| 2026-04-24 21:48 | -24.28598 | -57.36142 | 35381 ft | 395 kts | 300° |
| 2026-04-24 21:48 | -24.25614 | -57.41199 | 35382 ft | 394 kts | 300° |
| 2026-04-24 21:49 | -24.22630 | -57.46253 | 35383 ft | 396 kts | 300° |
| 2026-04-24 21:49 | -24.19645 | -57.51301 | 35383 ft | 395 kts | 300° |
| 2026-04-24 21:50 | -24.16664 | -57.56338 | 35383 ft | 396 kts | 300° |
| 2026-04-24 21:50 | -24.13674 | -57.61386 | 35383 ft | 396 kts | 300° |
| 2026-04-24 21:51 | -24.10679 | -57.66435 | 35394 ft | 395 kts | 300° |
| 2026-04-24 21:51 | -24.07690 | -57.71471 | 35392 ft | 395 kts | 300° |
| 2026-04-24 21:52 | -24.04674 | -57.76546 | 35399 ft | 397 kts | 300° |
| 2026-04-24 21:52 | -24.01673 | -57.81593 | 35395 ft | 395 kts | 300° |
| 2026-04-24 21:53 | -23.98672 | -57.86632 | 35387 ft | 396 kts | 300° |
| 2026-04-24 21:53 | -23.95677 | -57.91657 | 35395 ft | 397 kts | 300° |
| 2026-04-24 21:54 | -23.92653 | -57.96725 | 35398 ft | 398 kts | 300° |
| 2026-04-24 21:54 | -23.89663 | -58.01730 | 35396 ft | 396 kts | 300° |
| 2026-04-24 21:55 | -23.86633 | -58.06798 | 35396 ft | 397 kts | 300° |
| 2026-04-24 21:55 | -23.83636 | -58.11808 | 35392 ft | 396 kts | 300° |
| 2026-04-24 21:56 | -23.80597 | -58.16880 | 35389 ft | 397 kts | 300° |
| 2026-04-24 21:56 | -23.77647 | -58.21800 | 35389 ft | 398 kts | 300° |
| 2026-04-24 21:57 | -23.74620 | -58.26841 | 35392 ft | 398 kts | 300° |
| 2026-04-24 21:57 | -23.71591 | -58.31882 | 35394 ft | 397 kts | 300° |
| 2026-04-24 21:58 | -23.68566 | -58.36912 | 35394 ft | 398 kts | 300° |
| 2026-04-24 21:58 | -23.65524 | -58.41964 | 35390 ft | 397 kts | 300° |
| 2026-04-24 21:59 | -23.62506 | -58.46973 | 35385 ft | 397 kts | 300° |
| 2026-04-24 21:59 | -23.59464 | -58.52016 | 35389 ft | 397 kts | 300° |
| 2026-04-24 22:00 | -23.56418 | -58.57059 | 35382 ft | 398 kts | 300° |
| 2026-04-24 22:00 | -23.53393 | -58.62063 | 35382 ft | 398 kts | 300° |
| 2026-04-24 22:01 | -23.50345 | -58.67101 | 35405 ft | 400 kts | 301° |
| 2026-04-24 22:01 | -23.47295 | -58.72137 | 35398 ft | 400 kts | 301° |
| 2026-04-24 22:02 | -23.44234 | -58.77187 | 35405 ft | 399 kts | 301° |
| 2026-04-24 22:02 | -23.41188 | -58.82204 | 35399 ft | 399 kts | 301° |
| 2026-04-24 22:03 | -23.38130 | -58.87238 | 35398 ft | 400 kts | 300° |
| 2026-04-24 22:03 | -23.35049 | -58.92305 | 35402 ft | 398 kts | 301° |
| 2026-04-24 22:04 | -23.31994 | -58.97325 | 35393 ft | 399 kts | 301° |
| 2026-04-24 22:04 | -23.28932 | -59.02350 | 35392 ft | 400 kts | 301° |
| 2026-04-24 22:05 | -23.25872 | -59.07367 | 35390 ft | 400 kts | 301° |
| 2026-04-24 22:05 | -23.22774 | -59.12442 | 35391 ft | 400 kts | 301° |
| 2026-04-24 22:06 | -23.19713 | -59.17452 | 35391 ft | 401 kts | 301° |
| 2026-04-24 22:06 | -23.16640 | -59.22476 | 35387 ft | 400 kts | 301° |
| 2026-04-24 22:07 | -23.13545 | -59.27530 | 35391 ft | 401 kts | 301° |
| 2026-04-24 22:07 | -23.10456 | -59.32570 | 35388 ft | 402 kts | 300° |
| 2026-04-24 22:08 | -23.07370 | -59.37600 | 35389 ft | 402 kts | 301° |
| 2026-04-24 22:08 | -23.04268 | -59.42653 | 35386 ft | 402 kts | 301° |
| 2026-04-24 22:09 | -23.01164 | -59.47701 | 35387 ft | 401 kts | 301° |
| 2026-04-24 22:09 | -22.98072 | -59.52728 | 35381 ft | 401 kts | 301° |
| 2026-04-24 22:10 | -22.94980 | -59.57749 | 35383 ft | 401 kts | 301° |
| 2026-04-24 22:10 | -22.91876 | -59.62784 | 35378 ft | 403 kts | 301° |
| 2026-04-24 22:11 | -22.88763 | -59.67827 | 35403 ft | 403 kts | 301° |
| 2026-04-24 22:11 | -22.85641 | -59.72882 | 35404 ft | 402 kts | 301° |
| 2026-04-24 22:12 | -22.82524 | -59.77923 | 35401 ft | 403 kts | 301° |
| 2026-04-24 22:12 | -22.79407 | -59.82960 | 35399 ft | 402 kts | 301° |
| 2026-04-24 22:13 | -22.76287 | -59.87997 | 35397 ft | 404 kts | 301° |
| 2026-04-24 22:13 | -22.73173 | -59.93019 | 35395 ft | 402 kts | 301° |
| 2026-04-24 22:14 | -22.69921 | -59.97984 | 35399 ft | 405 kts | 308° |
| 2026-04-24 22:14 | -22.65813 | -60.02198 | 35396 ft | 410 kts | 313° |
| 2026-04-24 22:15 | -22.61611 | -60.06324 | 35393 ft | 409 kts | 313° |
| 2026-04-24 22:15 | -22.57384 | -60.10465 | 35394 ft | 409 kts | 313° |
| 2026-04-24 22:16 | -22.53178 | -60.14581 | 35390 ft | 410 kts | 313° |
| 2026-04-24 22:16 | -22.48933 | -60.18731 | 35392 ft | 409 kts | 313° |
| 2026-04-24 22:17 | -22.44724 | -60.22843 | 35393 ft | 407 kts | 313° |
| 2026-04-24 22:17 | -22.40515 | -60.26952 | 35383 ft | 408 kts | 313° |
| 2026-04-24 22:18 | -22.36298 | -60.31063 | 35390 ft | 409 kts | 313° |
| 2026-04-24 22:18 | -22.32088 | -60.35166 | 35390 ft | 408 kts | 313° |
| 2026-04-24 22:19 | -22.27878 | -60.39264 | 35396 ft | 409 kts | 313° |
| 2026-04-24 22:19 | -22.23638 | -60.43388 | 35385 ft | 409 kts | 313° |
| 2026-04-24 22:20 | -22.19405 | -60.47503 | 35393 ft | 410 kts | 313° |
| 2026-04-24 22:20 | -22.15177 | -60.51607 | 35389 ft | 408 kts | 313° |
| 2026-04-24 22:21 | -22.10969 | -60.55691 | 35393 ft | 408 kts | 313° |
| 2026-04-24 22:21 | -22.06768 | -60.59763 | 35390 ft | 408 kts | 313° |
| 2026-04-24 22:22 | -22.02951 | -60.64230 | 35402 ft | 403 kts | 302° |
| 2026-04-24 22:22 | -21.99665 | -60.69107 | 35409 ft | 404 kts | 303° |
| 2026-04-24 22:23 | -21.96377 | -60.73965 | 35410 ft | 402 kts | 303° |
| 2026-04-24 22:23 | -21.93064 | -60.78856 | 35402 ft | 401 kts | 302° |
| 2026-04-24 22:24 | -21.89776 | -60.83703 | 35404 ft | 403 kts | 302° |
| 2026-04-24 22:24 | -21.86484 | -60.88553 | 35404 ft | 402 kts | 302° |
| 2026-04-24 22:25 | -21.84288 | -60.91787 | 35402 ft | 403 kts | 302° |
| 2026-04-24 22:25 | -21.79863 | -60.98296 | 35399 ft | 402 kts | 303° |
| 2026-04-24 22:26 | -21.76571 | -61.03133 | 35396 ft | 403 kts | 303° |
| 2026-04-24 22:26 | -21.73262 | -61.07991 | 35395 ft | 402 kts | 302° |
| 2026-04-24 22:27 | -21.69965 | -61.12825 | 35398 ft | 403 kts | 302° |
| 2026-04-24 22:27 | -21.66701 | -61.17608 | 35395 ft | 402 kts | 303° |
| 2026-04-24 22:28 | -21.63388 | -61.22459 | 35394 ft | 403 kts | 303° |
| 2026-04-24 22:28 | -21.60072 | -61.27311 | 35394 ft | 402 kts | 303° |
| 2026-04-24 22:29 | -21.55080 | -61.34605 | 35392 ft | 402 kts | 302° |
| 2026-04-24 22:29 | -21.51764 | -61.39445 | 35394 ft | 403 kts | 303° |
| 2026-04-24 22:30 | -21.48471 | -61.44248 | 35390 ft | 403 kts | 303° |
| 2026-04-24 22:30 | -21.45141 | -61.49100 | 35388 ft | 404 kts | 303° |
| 2026-04-24 22:31 | -21.41814 | -61.53942 | 35386 ft | 404 kts | 303° |
| 2026-04-24 22:31 | -21.38487 | -61.58784 | 35386 ft | 403 kts | 303° |
| 2026-04-24 22:32 | -21.35160 | -61.63617 | 35390 ft | 405 kts | 303° |
| 2026-04-24 22:32 | -21.31809 | -61.68483 | 35405 ft | 403 kts | 303° |
| 2026-04-24 22:33 | -21.28491 | -61.73296 | 35404 ft | 405 kts | 303° |
| 2026-04-24 22:33 | -21.25135 | -61.78162 | 35407 ft | 405 kts | 303° |
| 2026-04-24 22:34 | -21.21798 | -61.82994 | 35405 ft | 405 kts | 303° |
| 2026-04-24 22:34 | -21.18474 | -61.87804 | 35404 ft | 405 kts | 303° |
| 2026-04-24 22:35 | -21.15117 | -61.92658 | 35405 ft | 405 kts | 303° |
| 2026-04-24 22:35 | -21.11777 | -61.97480 | 35400 ft | 403 kts | 303° |
| 2026-04-24 22:36 | -21.08432 | -62.02309 | 35403 ft | 403 kts | 303° |
| 2026-04-24 22:36 | -21.05096 | -62.07119 | 35394 ft | 403 kts | 303° |
| 2026-04-24 22:37 | -21.01739 | -62.11956 | 35400 ft | 404 kts | 303° |
| 2026-04-24 22:37 | -20.98381 | -62.16790 | 35396 ft | 405 kts | 303° |
| 2026-04-24 22:38 | -20.95044 | -62.21609 | 35392 ft | 404 kts | 301° |
| 2026-04-24 22:38 | -20.92144 | -62.26733 | 35393 ft | 404 kts | 298° |
| 2026-04-24 22:39 | -20.89267 | -62.31856 | 35392 ft | 403 kts | 298° |
| 2026-04-24 22:39 | -20.86375 | -62.36999 | 35392 ft | 404 kts | 298° |
| 2026-04-24 22:40 | -20.83502 | -62.42100 | 35389 ft | 405 kts | 298° |
| 2026-04-24 22:40 | -20.80589 | -62.47269 | 35387 ft | 405 kts | 298° |
| 2026-04-24 22:41 | -20.77690 | -62.52408 | 35386 ft | 403 kts | 298° |
| 2026-04-24 22:41 | -20.74790 | -62.57544 | 35378 ft | 405 kts | 298° |
| 2026-04-24 22:42 | -20.71881 | -62.62693 | 35375 ft | 405 kts | 298° |
| 2026-04-24 22:42 | -20.68962 | -62.67852 | 35393 ft | 404 kts | 298° |
| 2026-04-24 22:43 | -20.66051 | -62.72994 | 35386 ft | 406 kts | 298° |
| 2026-04-24 22:43 | -20.63156 | -62.78103 | 35384 ft | 405 kts | 298° |
| 2026-04-24 22:44 | -20.60236 | -62.83250 | 35376 ft | 406 kts | 298° |
| 2026-04-24 22:44 | -20.57318 | -62.88390 | 35375 ft | 407 kts | 298° |
| 2026-04-24 22:45 | -20.54387 | -62.93550 | 35371 ft | 406 kts | 298° |
| 2026-04-24 22:45 | -20.51459 | -62.98696 | 35362 ft | 405 kts | 298° |
| 2026-04-24 22:46 | -20.48533 | -63.03837 | 35359 ft | 407 kts | 298° |
| 2026-04-24 22:46 | -20.45593 | -63.08999 | 35351 ft | 406 kts | 298° |
| 2026-04-24 22:47 | -20.42660 | -63.14142 | 35343 ft | 406 kts | 298° |
| 2026-04-24 22:47 | -20.39744 | -63.19250 | 35334 ft | 406 kts | 298° |
| 2026-04-24 22:48 | -20.36791 | -63.24419 | 35330 ft | 408 kts | 298° |
| 2026-04-24 22:48 | -20.33874 | -63.29522 | 35329 ft | 406 kts | 298° |
| 2026-04-24 22:49 | -20.30932 | -63.34662 | 35335 ft | 408 kts | 298° |